createdAt,value
2015-07-30T00:00:04.971Z,95577
2015-07-30T00:00:23.377Z,95566
2015-07-30T00:00:41.768Z,95577
2015-07-30T00:01:00.239Z,95569
2015-07-30T00:01:18.707Z,95572
2015-07-30T00:01:37.160Z,95566
2015-07-30T00:01:55.537Z,95564
2015-07-30T00:02:14.037Z,95567
2015-07-30T00:02:32.569Z,95576
2015-07-30T00:02:51.147Z,95576
2015-07-30T00:03:09.571Z,95575
2015-07-30T00:03:28.118Z,95580
2015-07-30T00:03:46.633Z,95571
2015-07-30T00:04:05.213Z,95571
2015-07-30T00:04:23.791Z,95573
2015-07-30T00:04:42.182Z,95579
2015-07-30T00:05:00.807Z,95568
2015-07-30T00:05:19.247Z,95568
2015-07-30T00:05:37.637Z,95579
2015-07-30T00:05:56.184Z,95571
2015-07-30T00:06:14.842Z,95576
2015-07-30T00:06:32.780Z,95573
2015-07-30T00:06:51.358Z,95587
2015-07-30T00:07:09.764Z,95579
2015-07-30T00:07:28.330Z,95571
2015-07-30T00:07:46.892Z,95568
2015-07-30T00:08:05.361Z,95568
2015-07-30T00:08:23.925Z,95571
2015-07-30T00:08:41.754Z,95571
2015-07-30T00:09:00.191Z,95579
2015-07-30T00:09:18.816Z,95568
2015-07-30T00:09:37.287Z,95570
2015-07-30T00:09:55.771Z,95584
2015-07-30T00:10:14.287Z,95568
2015-07-30T00:10:32.866Z,95566
2015-07-30T00:10:51.428Z,95572
2015-07-30T00:11:10.116Z,95576
2015-07-30T00:11:28.491Z,95570
2015-07-30T00:11:46.994Z,95579
2015-07-30T00:12:04.978Z,95585
2015-07-30T00:12:23.478Z,95568
2015-07-30T00:12:41.917Z,95568
2015-07-30T00:13:00.432Z,95573
2015-07-30T00:13:19.151Z,95573
2015-07-30T00:13:37.747Z,95570
2015-07-30T00:13:56.372Z,95571
2015-07-30T00:14:14.794Z,95571
2015-07-30T00:14:33.169Z,95574
2015-07-30T00:14:51.703Z,95568
2015-07-30T00:15:10.094Z,95573
2015-07-30T00:15:28.516Z,95571
2015-07-30T00:15:47.094Z,95573
2015-07-30T00:16:05.564Z,95571
2015-07-30T00:16:24.252Z,95571
2015-07-30T00:16:42.627Z,95574
2015-07-30T00:17:01.176Z,95556
2015-07-30T00:17:19.738Z,95567
2015-07-30T00:17:38.176Z,95565
2015-07-30T00:17:56.801Z,95574
2015-07-30T00:18:15.193Z,95565
2015-07-30T00:18:33.787Z,95565
2015-07-30T00:18:52.209Z,95570
2015-07-30T00:19:10.617Z,95562
2015-07-30T00:19:29.133Z,95570
2015-07-30T00:19:47.649Z,95570
2015-07-30T00:20:06.086Z,95562
2015-07-30T00:20:24.494Z,95571
2015-07-30T00:20:43.072Z,95585
2015-07-30T00:21:01.619Z,95574
2015-07-30T00:21:20.247Z,95583
2015-07-30T00:21:39.075Z,95566
2015-07-30T00:21:57.669Z,95568
2015-07-30T00:22:16.123Z,95573
2015-07-30T00:22:34.514Z,95571
2015-07-30T00:22:53.186Z,95571
2015-07-30T00:23:11.655Z,95571
2015-07-30T00:23:30.110Z,95573
2015-07-30T00:23:48.750Z,95570
2015-07-30T00:24:07.672Z,95570
2015-07-30T00:24:26.299Z,95568
2015-07-30T00:24:44.674Z,95569
2015-07-30T00:25:03.315Z,95572
2015-07-30T00:25:21.830Z,95583
2015-07-30T00:25:40.208Z,95580
2015-07-30T00:25:58.755Z,95575
2015-07-30T00:26:17.177Z,95565
2015-07-30T00:26:35.568Z,95576
2015-07-30T00:26:54.367Z,95560
2015-07-30T00:27:12.835Z,95576
2015-07-30T00:27:31.539Z,95577
2015-07-30T00:27:49.994Z,95580
2015-07-30T00:28:08.384Z,95577
2015-07-30T00:28:26.916Z,95562
2015-07-30T00:28:45.447Z,95577
2015-07-30T00:29:03.979Z,95577
2015-07-30T00:29:22.620Z,95577
2015-07-30T00:29:40.995Z,95578
2015-07-30T00:29:59.404Z,95566
2015-07-30T00:30:17.982Z,95574
2015-07-30T00:30:36.388Z,95574
2015-07-30T00:30:54.873Z,95569
2015-07-30T00:31:13.406Z,95564
2015-07-30T00:31:32.125Z,95575
2015-07-30T00:31:50.906Z,95566
2015-07-30T00:32:09.346Z,95572
2015-07-30T00:32:28.034Z,95573
2015-07-30T00:32:46.612Z,95564
2015-07-30T00:33:05.050Z,95570
2015-07-30T00:33:23.582Z,95570
2015-07-30T00:33:42.144Z,95570
2015-07-30T00:34:00.707Z,95575
2015-07-30T00:34:19.210Z,95576
2015-07-30T00:34:37.632Z,95578
2015-07-30T00:34:56.288Z,95581
2015-07-30T00:35:14.788Z,95570
2015-07-30T00:35:33.336Z,95562
2015-07-30T00:35:51.742Z,95576
2015-07-30T00:36:10.133Z,95573
2015-07-30T00:36:28.807Z,95570
2015-07-30T00:36:47.322Z,95569
2015-07-30T00:37:05.260Z,95572
2015-07-30T00:37:23.666Z,95579
2015-07-30T00:37:42.199Z,95571
2015-07-30T00:38:00.684Z,95569
2015-07-30T00:38:19.059Z,95572
2015-07-30T00:38:37.498Z,95570
2015-07-30T00:38:55.873Z,95569
2015-07-30T00:39:13.607Z,95574
2015-07-30T00:39:32.076Z,95577
2015-07-30T00:39:50.517Z,95569
2015-07-30T00:40:09.126Z,95580
2015-07-30T00:40:27.610Z,95564
2015-07-30T00:40:46.034Z,95578
2015-07-30T00:41:04.612Z,95580
2015-07-30T00:41:23.222Z,95582
2015-07-30T00:41:41.003Z,95569
2015-07-30T00:41:59.380Z,95572
2015-07-30T00:42:17.943Z,95566
2015-07-30T00:42:36.380Z,95566
2015-07-30T00:42:54.865Z,95573
2015-07-30T00:43:13.350Z,95579
2015-07-30T00:43:31.850Z,95565
2015-07-30T00:43:50.697Z,95560
2015-07-30T00:44:09.181Z,95571
2015-07-30T00:44:27.556Z,95573
2015-07-30T00:44:45.978Z,95568
2015-07-30T00:45:04.183Z,95566
2015-07-30T00:45:22.652Z,95574
2015-07-30T00:45:41.230Z,95563
2015-07-30T00:45:59.855Z,95569
2015-07-30T00:46:18.560Z,95569
2015-07-30T00:46:37.169Z,95569
2015-07-30T00:46:55.544Z,95569
2015-07-30T00:47:13.953Z,95571
2015-07-30T00:47:32.499Z,95566
2015-07-30T00:47:51.140Z,95567
2015-07-30T00:48:09.640Z,95566
2015-07-30T00:48:28.298Z,95569
2015-07-30T00:48:46.955Z,95567
2015-07-30T00:49:05.423Z,95570
2015-07-30T00:49:23.847Z,95567
2015-07-30T00:49:42.269Z,95576
2015-07-30T00:50:01.222Z,95573
2015-07-30T00:50:19.613Z,95572
2015-07-30T00:50:37.990Z,95569
2015-07-30T00:50:56.599Z,95577
2015-07-30T00:51:15.068Z,95566
2015-07-30T00:51:33.633Z,95563
2015-07-30T00:51:52.118Z,95571
2015-07-30T00:52:10.915Z,95568
2015-07-30T00:52:29.352Z,95571
2015-07-30T00:52:47.994Z,95571
2015-07-30T00:53:06.572Z,95584
2015-07-30T00:53:25.056Z,95587
2015-07-30T00:53:43.559Z,95576
2015-07-30T00:54:02.122Z,95574
2015-07-30T00:54:20.778Z,95574
2015-07-30T00:54:39.153Z,95574
2015-07-30T00:54:57.560Z,95573
2015-07-30T00:55:16.217Z,95573
2015-07-30T00:55:34.748Z,95573
2015-07-30T00:55:53.220Z,95579
2015-07-30T00:56:11.595Z,95574
2015-07-30T00:56:30.141Z,95564
2015-07-30T00:56:48.470Z,95569
2015-07-30T00:57:06.955Z,95569
2015-07-30T00:57:24.752Z,95581
2015-07-30T00:57:43.424Z,95564
2015-07-30T00:58:01.895Z,95572
2015-07-30T00:58:20.270Z,95572
2015-07-30T00:58:38.692Z,95570
2015-07-30T00:58:57.145Z,95565
2015-07-30T00:59:15.662Z,95562
2015-07-30T00:59:34.209Z,95570
2015-07-30T00:59:52.803Z,95570
2015-07-30T01:00:11.446Z,95567
2015-07-30T01:00:29.946Z,95570
2015-07-30T01:00:48.384Z,95567
2015-07-30T01:01:07.698Z,95564
2015-07-30T01:01:27.480Z,95570
2015-07-30T01:01:47.542Z,95567
2015-07-30T01:02:07.151Z,95572
2015-07-30T01:02:27.574Z,95569
2015-07-30T01:02:46.387Z,95574
2015-07-30T01:03:06.856Z,95572
2015-07-30T01:03:26.562Z,95577
2015-07-30T01:03:44.999Z,95574
2015-07-30T01:04:03.640Z,95569
2015-07-30T01:04:22.329Z,95566
2015-07-30T01:04:40.720Z,95566
2015-07-30T01:04:59.173Z,95566
2015-07-30T01:05:17.751Z,95558
2015-07-30T01:05:36.315Z,95567
2015-07-30T01:05:54.940Z,95567
2015-07-30T01:06:13.362Z,95573
2015-07-30T01:06:31.958Z,95567
2015-07-30T01:06:50.349Z,95569
2015-07-30T01:07:08.802Z,95569
2015-07-30T01:07:27.443Z,95575
2015-07-30T01:07:46.038Z,95574
2015-07-30T01:08:04.523Z,95566
2015-07-30T01:08:23.210Z,95567
2015-07-30T01:08:41.963Z,95572
2015-07-30T01:09:00.495Z,95574
2015-07-30T01:09:18.948Z,95566
2015-07-30T01:09:37.448Z,95574
2015-07-30T01:09:55.996Z,95569
2015-07-30T01:10:14.527Z,95569
2015-07-30T01:10:32.902Z,95572
2015-07-30T01:10:51.389Z,95574
2015-07-30T01:11:09.874Z,95577
2015-07-30T01:11:28.358Z,95563
2015-07-30T01:11:46.749Z,95574
2015-07-30T01:12:05.204Z,95565
2015-07-30T01:12:23.907Z,95574
2015-07-30T01:12:42.313Z,95574
2015-07-30T01:13:00.690Z,95582
2015-07-30T01:13:19.096Z,95571
2015-07-30T01:13:37.487Z,95566
2015-07-30T01:13:56.159Z,95569
2015-07-30T01:14:38.192Z,95576
2015-07-30T01:14:56.848Z,95571
2015-07-30T01:15:15.412Z,95573
2015-07-30T01:15:33.849Z,95570
2015-07-30T01:15:52.443Z,95573
2015-07-30T01:16:10.884Z,95573
2015-07-30T01:16:29.477Z,95573
2015-07-30T01:16:47.852Z,95570
2015-07-30T01:17:06.259Z,95576
2015-07-30T01:17:24.651Z,95574
2015-07-30T01:17:43.182Z,95566
2015-07-30T01:18:01.761Z,95564
2015-07-30T01:18:20.575Z,95569
2015-07-30T01:18:39.184Z,95569
2015-07-30T01:18:57.106Z,95564
2015-07-30T01:19:15.763Z,95572
2015-07-30T01:19:34.296Z,95572
2015-07-30T01:19:52.968Z,95560
2015-07-30T01:20:11.577Z,95568
2015-07-30T01:20:30.548Z,95568
2015-07-30T01:20:49.392Z,95566
2015-07-30T01:21:07.829Z,95563
2015-07-30T01:21:26.534Z,95571
2015-07-30T01:21:45.269Z,95563
2015-07-30T01:22:03.659Z,95571
2015-07-30T01:22:22.190Z,95571
2015-07-30T01:22:40.802Z,95576
2015-07-30T01:22:59.192Z,95567
2015-07-30T01:23:17.802Z,95565
2015-07-30T01:23:36.632Z,95571
2015-07-30T01:23:55.569Z,95569
2015-07-30T01:24:13.991Z,95570
2015-07-30T01:24:32.726Z,95564
2015-07-30T01:24:51.243Z,95569
2015-07-30T01:25:09.696Z,95566
2015-07-30T01:25:28.462Z,95567
2015-07-30T01:25:47.120Z,95569
2015-07-30T01:26:05.667Z,95564
2015-07-30T01:26:24.058Z,95577
2015-07-30T01:26:42.573Z,95569
2015-07-30T01:27:01.107Z,95565
2015-07-30T01:27:19.685Z,95566
2015-07-30T01:27:38.060Z,95568
2015-07-30T01:27:56.562Z,95563
2015-07-30T01:28:15.140Z,95564
2015-07-30T01:28:33.562Z,95564
2015-07-30T01:28:52.314Z,95574
2015-07-30T01:29:10.704Z,95568
2015-07-30T01:29:29.142Z,95563
2015-07-30T01:29:47.814Z,95560
2015-07-30T01:30:06.457Z,95569
2015-07-30T01:30:25.395Z,95561
2015-07-30T01:30:43.832Z,95563
2015-07-30T01:31:02.413Z,95574
2015-07-30T01:31:21.147Z,95566
2015-07-30T01:31:39.756Z,95561
2015-07-30T01:31:58.288Z,95560
2015-07-30T01:32:17.132Z,95557
2015-07-30T01:32:35.570Z,95561
2015-07-30T01:32:54.070Z,95572
2015-07-30T01:33:12.494Z,95558
2015-07-30T01:33:31.119Z,95569
2015-07-30T01:33:49.509Z,95564
2015-07-30T01:34:07.931Z,95562
2015-07-30T01:34:26.402Z,95568
2015-07-30T01:34:44.949Z,95562
2015-07-30T01:35:03.433Z,95557
2015-07-30T01:35:21.905Z,95560
2015-07-30T01:35:40.280Z,95560
2015-07-30T01:35:58.796Z,95569
2015-07-30T01:36:17.233Z,95566
2015-07-30T01:36:35.687Z,95566
2015-07-30T01:36:54.172Z,95561
2015-07-30T01:37:12.547Z,95558
2015-07-30T01:37:31.190Z,95561
2015-07-30T01:37:49.800Z,95558
2015-07-30T01:38:08.206Z,95561
2015-07-30T01:38:26.612Z,95564
2015-07-30T01:38:44.989Z,95561
2015-07-30T01:39:03.520Z,95566
2015-07-30T01:39:22.036Z,95560
2015-07-30T01:39:40.569Z,95563
2015-07-30T01:39:59.288Z,95558
2015-07-30T01:40:17.710Z,95563
2015-07-30T01:40:36.116Z,95561
2015-07-30T01:40:54.743Z,95558
2015-07-30T01:41:13.290Z,95566
2015-07-30T01:41:31.837Z,95558
2015-07-30T01:41:50.339Z,95559
2015-07-30T01:42:08.729Z,95562
2015-07-30T01:42:27.839Z,95556
2015-07-30T01:42:46.215Z,95569
2015-07-30T01:43:04.871Z,95559
2015-07-30T01:43:23.387Z,95575
2015-07-30T01:43:41.887Z,95556
2015-07-30T01:44:00.296Z,95556
2015-07-30T01:44:19.093Z,95562
2015-07-30T01:44:37.749Z,95554
2015-07-30T01:44:56.046Z,95562
2015-07-30T01:45:13.907Z,95550
2015-07-30T01:45:32.470Z,95564
2015-07-30T01:45:51.095Z,95556
2015-07-30T01:46:09.487Z,95559
2015-07-30T01:46:28.081Z,95553
2015-07-30T01:46:46.612Z,95553
2015-07-30T01:47:05.144Z,95561
2015-07-30T01:47:23.552Z,95552
2015-07-30T01:47:41.286Z,95558
2015-07-30T01:47:59.677Z,95558
2015-07-30T01:48:18.476Z,95558
2015-07-30T01:48:36.929Z,95558
2015-07-30T01:48:55.366Z,95552
2015-07-30T01:49:14.085Z,95555
2015-07-30T01:49:32.915Z,95552
2015-07-30T01:49:51.462Z,95552
2015-07-30T01:50:09.837Z,95558
2015-07-30T01:50:28.417Z,95563
2015-07-30T01:50:46.839Z,95561
2015-07-30T01:51:05.417Z,95554
2015-07-30T01:51:24.214Z,95560
2015-07-30T01:51:42.592Z,95557
2015-07-30T01:52:01.045Z,95554
2015-07-30T01:52:19.608Z,95562
2015-07-30T01:52:38.313Z,95562
2015-07-30T01:52:57.141Z,95563
2015-07-30T01:53:15.579Z,95568
2015-07-30T01:53:34.252Z,95553
2015-07-30T01:53:52.706Z,95559
2015-07-30T01:54:11.143Z,95558
2015-07-30T01:54:29.721Z,95552
2015-07-30T01:54:48.441Z,95558
2015-07-30T01:55:07.082Z,95561
2015-07-30T01:55:25.832Z,95555
2015-07-30T01:55:44.443Z,95563
2015-07-30T01:56:02.927Z,95558
2015-07-30T01:56:21.459Z,95556
2015-07-30T01:56:39.880Z,95554
2015-07-30T01:56:58.774Z,95557
2015-07-30T01:57:17.227Z,95554
2015-07-30T01:57:35.727Z,95554
2015-07-30T01:57:54.180Z,95555
2015-07-30T01:58:12.870Z,95551
2015-07-30T01:58:31.198Z,95557
2015-07-30T01:58:49.807Z,95546
2015-07-30T01:59:08.559Z,95553
2015-07-30T01:59:27.122Z,95556
2015-07-30T01:59:45.528Z,95562
2015-07-30T02:00:04.044Z,95558
2015-07-30T02:00:22.546Z,95556
2015-07-30T02:00:40.999Z,95554
2015-07-30T02:00:59.593Z,95551
2015-07-30T02:01:18.188Z,95551
2015-07-30T02:01:36.970Z,95551
2015-07-30T02:01:55.454Z,95548
2015-07-30T02:02:14.159Z,95553
2015-07-30T02:02:32.675Z,95556
2015-07-30T02:02:50.956Z,95553
2015-07-30T02:03:09.518Z,95553
2015-07-30T02:03:28.302Z,95561
2015-07-30T02:03:47.083Z,95558
2015-07-30T02:04:05.536Z,95558
2015-07-30T02:04:24.085Z,95547
2015-07-30T02:04:42.522Z,95556
2015-07-30T02:05:01.226Z,95548
2015-07-30T02:05:19.913Z,95551
2015-07-30T02:05:38.634Z,95556
2015-07-30T02:05:57.243Z,95554
2015-07-30T02:06:15.696Z,95548
2015-07-30T02:06:34.277Z,95553
2015-07-30T02:06:53.043Z,95554
2015-07-30T02:07:11.777Z,95550
2015-07-30T02:07:30.153Z,95548
2015-07-30T02:07:48.544Z,95548
2015-07-30T02:08:07.232Z,95551
2015-07-30T02:08:25.888Z,95559
2015-07-30T02:08:44.344Z,95554
2015-07-30T02:09:02.766Z,95551
2015-07-30T02:09:21.235Z,95559
2015-07-30T02:09:39.672Z,95556
2015-07-30T02:09:58.112Z,95543
2015-07-30T02:10:16.502Z,95548
2015-07-30T02:10:34.877Z,95554
2015-07-30T02:10:53.284Z,95548
2015-07-30T02:11:11.706Z,95553
2015-07-30T02:11:30.144Z,95553
2015-07-30T02:11:48.722Z,95556
2015-07-30T02:12:07.208Z,95547
2015-07-30T02:12:25.818Z,95553
2015-07-30T02:12:44.255Z,95552
2015-07-30T02:13:02.648Z,95546
2015-07-30T02:13:21.038Z,95549
2015-07-30T02:13:39.695Z,95549
2015-07-30T02:13:58.179Z,95563
2015-07-30T02:14:16.651Z,95552
2015-07-30T02:14:35.245Z,95560
2015-07-30T02:14:53.870Z,95552
2015-07-30T02:15:12.403Z,95541
2015-07-30T02:15:31.043Z,95549
2015-07-30T02:15:49.575Z,95549
2015-07-30T02:16:08.059Z,95549
2015-07-30T02:16:26.483Z,95546
2015-07-30T02:16:45.061Z,95549
2015-07-30T02:17:03.436Z,95546
2015-07-30T02:17:22.095Z,95549
2015-07-30T02:17:40.627Z,95547
2015-07-30T02:17:59.127Z,95547
2015-07-30T02:18:17.720Z,95550
2015-07-30T02:18:36.299Z,95550
2015-07-30T02:18:54.784Z,95553
2015-07-30T02:19:13.565Z,95550
2015-07-30T02:19:32.395Z,95548
2015-07-30T02:19:50.911Z,95545
2015-07-30T02:20:09.364Z,95550
2015-07-30T02:20:27.801Z,95544
2015-07-30T02:20:46.335Z,95545
2015-07-30T02:21:05.194Z,95542
2015-07-30T02:21:23.647Z,95553
2015-07-30T02:21:42.055Z,95551
2015-07-30T02:22:00.524Z,95540
2015-07-30T02:22:19.024Z,95554
2015-07-30T02:22:37.415Z,95547
2015-07-30T02:22:55.807Z,95544
2015-07-30T02:23:14.432Z,95552
2015-07-30T02:23:33.229Z,95547
2015-07-30T02:23:51.670Z,95555
2015-07-30T02:24:10.060Z,95544
2015-07-30T02:24:28.701Z,95547
2015-07-30T02:24:47.185Z,95547
2015-07-30T02:25:05.640Z,95550
2015-07-30T02:25:24.015Z,95547
2015-07-30T02:25:42.390Z,95547
2015-07-30T02:26:00.783Z,95549
2015-07-30T02:26:19.330Z,95549
2015-07-30T02:26:37.955Z,95548
2015-07-30T02:26:56.502Z,95545
2015-07-30T02:27:15.035Z,95550
2015-07-30T02:27:33.629Z,95550
2015-07-30T02:27:52.004Z,95546
2015-07-30T02:28:10.412Z,95552
2015-07-30T02:28:28.818Z,95558
2015-07-30T02:28:47.412Z,95550
2015-07-30T02:29:05.912Z,95545
2015-07-30T02:29:24.289Z,95558
2015-07-30T02:29:42.680Z,95555
2015-07-30T02:30:01.086Z,95555
2015-07-30T02:30:19.494Z,95547
2015-07-30T02:30:37.885Z,95555
2015-07-30T02:30:56.338Z,95547
2015-07-30T02:31:14.713Z,95545
2015-07-30T02:31:33.246Z,95551
2015-07-30T02:31:51.684Z,95544
2015-07-30T02:32:10.090Z,95555
2015-07-30T02:32:28.467Z,95547
2015-07-30T02:32:47.045Z,95555
2015-07-30T02:33:05.436Z,95555
2015-07-30T02:33:23.811Z,95550
2015-07-30T02:33:42.438Z,95544
2015-07-30T02:34:01.125Z,95556
2015-07-30T02:34:19.532Z,95547
2015-07-30T02:34:38.159Z,95548
2015-07-30T02:34:56.596Z,95553
2015-07-30T02:35:14.971Z,95551
2015-07-30T02:35:33.565Z,95549
2015-07-30T02:35:52.004Z,95557
2015-07-30T02:36:10.395Z,95553
2015-07-30T02:36:28.957Z,95553
2015-07-30T02:36:47.445Z,95556
2015-07-30T02:37:06.164Z,95558
2015-07-30T02:37:24.570Z,95547
2015-07-30T02:37:43.054Z,95545
2015-07-30T02:38:01.524Z,95554
2015-07-30T02:38:20.008Z,95545
2015-07-30T02:38:38.508Z,95553
2015-07-30T02:38:56.933Z,95544
2015-07-30T02:39:15.418Z,95544
2015-07-30T02:39:33.902Z,95546
2015-07-30T02:39:52.464Z,95549
2015-07-30T02:40:11.185Z,95552
2015-07-30T02:40:29.638Z,95544
2015-07-30T02:40:48.123Z,95534
2015-07-30T02:41:06.624Z,95545
2015-07-30T02:41:25.202Z,95542
2015-07-30T02:41:43.764Z,95539
2015-07-30T02:42:02.155Z,95553
2015-07-30T02:42:20.845Z,95545
2015-07-30T02:42:39.252Z,95539
2015-07-30T02:42:57.689Z,95550
2015-07-30T02:43:16.176Z,95545
2015-07-30T02:43:34.582Z,95537
2015-07-30T02:43:52.957Z,95538
2015-07-30T02:44:11.426Z,95546
2015-07-30T02:44:30.084Z,95537
2015-07-30T02:44:48.834Z,95537
2015-07-30T02:45:07.568Z,95542
2015-07-30T02:45:26.336Z,95543
2015-07-30T02:45:44.883Z,95535
2015-07-30T02:46:03.320Z,95527
2015-07-30T02:46:21.898Z,95543
2015-07-30T02:46:40.447Z,95546
2015-07-30T02:46:59.213Z,95543
2015-07-30T02:47:17.744Z,95542
2015-07-30T02:47:36.449Z,95537
2015-07-30T02:47:55.184Z,95548
2015-07-30T02:48:13.746Z,95540
2015-07-30T02:48:32.152Z,95537
2015-07-30T02:48:50.779Z,95537
2015-07-30T02:49:09.514Z,95548
2015-07-30T02:49:27.904Z,95540
2015-07-30T02:49:46.469Z,95542
2015-07-30T02:50:04.969Z,95536
2015-07-30T02:50:23.391Z,95546
2015-07-30T02:50:41.906Z,95541
2015-07-30T02:51:00.361Z,95536
2015-07-30T02:51:18.799Z,95539
2015-07-30T02:51:37.252Z,95539
2015-07-30T02:51:55.755Z,95544
2015-07-30T02:52:14.255Z,95538
2015-07-30T02:52:32.802Z,95546
2015-07-30T02:52:51.396Z,95535
2015-07-30T02:53:09.945Z,95550
2015-07-30T02:53:28.460Z,95539
2015-07-30T02:53:46.976Z,95542
2015-07-30T02:54:05.368Z,95543
2015-07-30T02:54:24.025Z,95537
2015-07-30T02:54:42.493Z,95540
2015-07-30T02:55:01.040Z,95547
2015-07-30T02:55:19.416Z,95545
2015-07-30T02:55:37.838Z,95542
2015-07-30T02:55:56.557Z,95545
2015-07-30T02:56:14.982Z,95548
2015-07-30T02:56:33.419Z,95551
2015-07-30T02:56:51.919Z,95548
2015-07-30T02:57:10.482Z,95540
2015-07-30T02:57:29.139Z,95544
2015-07-30T02:57:47.702Z,95550
2015-07-30T02:58:06.170Z,95539
2015-07-30T02:58:24.798Z,95539
2015-07-30T02:58:43.236Z,95547
2015-07-30T02:59:01.673Z,95541
2015-07-30T02:59:20.158Z,95541
2015-07-30T02:59:38.878Z,95544
2015-07-30T02:59:57.441Z,95541
2015-07-30T03:00:15.941Z,95536
2015-07-30T03:00:34.568Z,95543
2015-07-30T03:00:53.193Z,95546
2015-07-30T03:01:11.584Z,95541
2015-07-30T03:01:30.177Z,95546
2015-07-30T03:01:48.711Z,95540
2015-07-30T03:02:07.211Z,95543
2015-07-30T03:02:25.789Z,95551
2015-07-30T03:02:44.448Z,95540
2015-07-30T03:03:02.839Z,95549
2015-07-30T03:03:21.214Z,95540
2015-07-30T03:03:39.885Z,95541
2015-07-30T03:03:58.558Z,95547
2015-07-30T03:04:16.996Z,95534
2015-07-30T03:04:35.418Z,95545
2015-07-30T03:04:54.029Z,95544
2015-07-30T03:05:12.498Z,95546
2015-07-30T03:05:31.248Z,95546
2015-07-30T03:05:49.732Z,95540
2015-07-30T03:06:08.594Z,95546
2015-07-30T03:06:27.172Z,95546
2015-07-30T03:06:45.672Z,95548
2015-07-30T03:07:04.331Z,95542
2015-07-30T03:07:22.956Z,95545
2015-07-30T03:07:41.675Z,95542
2015-07-30T03:08:00.066Z,95551
2015-07-30T03:08:18.519Z,95546
2015-07-30T03:08:36.894Z,95547
2015-07-30T03:08:55.660Z,95547
2015-07-30T03:09:14.210Z,95549
2015-07-30T03:09:32.944Z,95544
2015-07-30T03:09:51.429Z,95547
2015-07-30T03:10:09.882Z,95547
2015-07-30T03:10:28.367Z,95549
2015-07-30T03:10:47.117Z,95555
2015-07-30T03:11:05.758Z,95544
2015-07-30T03:11:24.370Z,95541
2015-07-30T03:11:43.042Z,95544
2015-07-30T03:12:01.683Z,95552
2015-07-30T03:12:20.058Z,95546
2015-07-30T03:12:38.591Z,95546
2015-07-30T03:12:57.450Z,95541
2015-07-30T03:13:15.888Z,95550
2015-07-30T03:13:34.452Z,95557
2015-07-30T03:13:53.046Z,95552
2015-07-30T03:14:11.609Z,95546
2015-07-30T03:14:30.046Z,95552
2015-07-30T03:14:48.673Z,95549
2015-07-30T03:15:07.079Z,95546
2015-07-30T03:15:25.751Z,95552
2015-07-30T03:15:44.284Z,95541
2015-07-30T03:16:02.878Z,95557
2015-07-30T03:16:21.316Z,95552
2015-07-30T03:16:40.177Z,95546
2015-07-30T03:16:58.724Z,95549
2015-07-30T03:17:17.396Z,95552
2015-07-30T03:17:36.161Z,95544
2015-07-30T03:17:54.679Z,95552
2015-07-30T03:18:13.195Z,95552
2015-07-30T03:18:31.617Z,95546
2015-07-30T03:18:49.992Z,95548
2015-07-30T03:19:08.494Z,95551
2015-07-30T03:19:27.197Z,95554
2015-07-30T03:19:45.775Z,95557
2015-07-30T03:20:04.667Z,95549
2015-07-30T03:20:23.058Z,95552
2015-07-30T03:20:41.464Z,95546
2015-07-30T03:21:00.105Z,95554
2015-07-30T03:21:18.499Z,95548
2015-07-30T03:21:36.952Z,95545
2015-07-30T03:21:55.483Z,95549
2015-07-30T03:22:14.063Z,95541
2015-07-30T03:22:32.438Z,95560
2015-07-30T03:22:51.016Z,95551
2015-07-30T03:23:09.547Z,95548
2015-07-30T03:23:28.003Z,95551
2015-07-30T03:23:46.862Z,95540
2015-07-30T03:24:05.237Z,95537
2015-07-30T03:24:23.863Z,95554
2015-07-30T03:24:42.488Z,95541
2015-07-30T03:25:00.879Z,95549
2015-07-30T03:25:19.269Z,95548
2015-07-30T03:25:37.803Z,95540
2015-07-30T03:25:56.350Z,95549
2015-07-30T03:26:14.850Z,95543
2015-07-30T03:26:33.415Z,95546
2015-07-30T03:26:51.837Z,95555
2015-07-30T03:27:10.212Z,95553
2015-07-30T03:27:28.946Z,95552
2015-07-30T03:27:47.448Z,95555
2015-07-30T03:28:05.995Z,95546
2015-07-30T03:28:24.526Z,95555
2015-07-30T03:28:42.888Z,95552
2015-07-30T03:29:01.341Z,95556
2015-07-30T03:29:20.419Z,95559
2015-07-30T03:29:38.936Z,95556
2015-07-30T03:29:57.311Z,95550
2015-07-30T03:30:15.796Z,95549
2015-07-30T03:30:34.108Z,95555
2015-07-30T03:30:52.798Z,95552
2015-07-30T03:31:11.267Z,95560
2015-07-30T03:31:29.688Z,95551
2015-07-30T03:31:48.157Z,95551
2015-07-30T03:32:06.504Z,95557
2015-07-30T03:32:25.082Z,95553
2015-07-30T03:32:43.754Z,95547
2015-07-30T03:33:02.209Z,95553
2015-07-30T03:33:21.006Z,95554
2015-07-30T03:33:39.787Z,95549
2015-07-30T03:33:58.227Z,95557
2015-07-30T03:34:16.789Z,95553
2015-07-30T03:34:35.164Z,95545
2015-07-30T03:34:53.836Z,95553
2015-07-30T03:35:12.322Z,95553
2015-07-30T03:35:30.822Z,95556
2015-07-30T03:35:49.447Z,95550
2015-07-30T03:36:08.183Z,95556
2015-07-30T03:36:26.792Z,95551
2015-07-30T03:36:45.230Z,95549
2015-07-30T03:37:03.745Z,95554
2015-07-30T03:37:22.185Z,95560
2015-07-30T03:37:40.669Z,95555
2015-07-30T03:37:59.404Z,95550
2015-07-30T03:38:18.125Z,95550
2015-07-30T03:38:36.828Z,95550
2015-07-30T03:38:55.203Z,95550
2015-07-30T03:39:13.703Z,95553
2015-07-30T03:39:32.237Z,95556
2015-07-30T03:39:50.627Z,95553
2015-07-30T03:40:09.315Z,95550
2015-07-30T03:40:27.768Z,95558
2015-07-30T03:40:46.192Z,95557
2015-07-30T03:41:04.645Z,95549
2015-07-30T03:41:23.098Z,95552
2015-07-30T03:41:41.647Z,95550
2015-07-30T03:42:00.022Z,95554
2015-07-30T03:42:18.413Z,95557
2015-07-30T03:42:37.038Z,95552
2015-07-30T03:42:55.649Z,95544
2015-07-30T03:43:14.477Z,95550
2015-07-30T03:43:32.930Z,95544
2015-07-30T03:43:51.307Z,95549
2015-07-30T03:44:09.698Z,95547
2015-07-30T03:44:28.292Z,95539
2015-07-30T03:44:46.917Z,95557
2015-07-30T03:45:05.325Z,95546
2015-07-30T03:45:23.778Z,95555
2015-07-30T03:45:42.278Z,95551
2015-07-30T03:46:01.155Z,95556
2015-07-30T03:46:19.639Z,95550
2015-07-30T03:46:38.155Z,95542
2015-07-30T03:46:56.592Z,95556
2015-07-30T03:47:15.251Z,95540
2015-07-30T03:47:33.751Z,95551
2015-07-30T03:47:52.423Z,95551
2015-07-30T03:48:10.909Z,95551
2015-07-30T03:48:29.284Z,95557
2015-07-30T03:48:47.675Z,95551
2015-07-30T03:49:06.096Z,95557
2015-07-30T03:49:24.473Z,95554
2015-07-30T03:49:43.067Z,95549
2015-07-30T03:50:01.677Z,95557
2015-07-30T03:50:20.320Z,95557
2015-07-30T03:50:39.258Z,95563
2015-07-30T03:50:57.695Z,95561
2015-07-30T03:51:16.385Z,95557
2015-07-30T03:51:34.822Z,95554
2015-07-30T03:51:53.260Z,95563
2015-07-30T03:52:11.744Z,95557
2015-07-30T03:52:30.215Z,95552
2015-07-30T03:52:48.777Z,95554
2015-07-30T03:53:07.043Z,95549
2015-07-30T03:53:25.512Z,95559
2015-07-30T03:53:44.154Z,95548
2015-07-30T03:54:02.607Z,95556
2015-07-30T03:54:20.920Z,95566
2015-07-30T03:54:39.344Z,95558
2015-07-30T03:54:58.125Z,95559
2015-07-30T03:55:16.813Z,95559
2015-07-30T03:55:35.252Z,95558
2015-07-30T03:55:53.861Z,95561
2015-07-30T03:56:12.471Z,95557
2015-07-30T03:56:30.986Z,95559
2015-07-30T03:56:49.476Z,95554
2015-07-30T03:57:08.069Z,95563
2015-07-30T03:57:26.663Z,95560
2015-07-30T03:57:45.148Z,95554
2015-07-30T03:58:03.774Z,95565
2015-07-30T03:58:22.414Z,95551
2015-07-30T03:58:40.883Z,95560
2015-07-30T03:58:59.308Z,95558